sensor_id;sensor_type;location;lat;lon;timestamp;temperature;humidity
13521;DHT22;6832;51.186;3.236;2023-04-03T00:01:21;14.50;58.50
13521;DHT22;6832;51.186;3.236;2023-04-03T00:03:48;14.50;58.50
13521;DHT22;6832;51.186;3.236;2023-04-03T00:06:21;14.40;58.40
13521;DHT22;6832;51.186;3.236;2023-04-03T00:08:52;14.50;58.40
13521;DHT22;6832;51.186;3.236;2023-04-03T00:11:19;14.40;58.30
13521;DHT22;6832;51.186;3.236;2023-04-03T00:13:47;14.50;58.50
13521;DHT22;6832;51.186;3.236;2023-04-03T00:16:14;14.40;58.40
13521;DHT22;6832;51.186;3.236;2023-04-03T00:18:41;14.40;58.30
13521;DHT22;6832;51.186;3.236;2023-04-03T00:21:10;14.40;58.40
13521;DHT22;6832;51.186;3.236;2023-04-03T00:23:43;14.40;58.40
13521;DHT22;6832;51.186;3.236;2023-04-03T00:26:12;14.40;58.30
13521;DHT22;6832;51.186;3.236;2023-04-03T00:28:39;14.40;58.30
13521;DHT22;6832;51.186;3.236;2023-04-03T00:31:06;14.40;58.30
13521;DHT22;6832;51.186;3.236;2023-04-03T00:33:33;14.40;58.30
13521;DHT22;6832;51.186;3.236;2023-04-03T00:36:06;14.40;58.30
13521;DHT22;6832;51.186;3.236;2023-04-03T00:38:33;14.30;58.30
13521;DHT22;6832;51.186;3.236;2023-04-03T00:41:02;14.30;58.30
13521;DHT22;6832;51.186;3.236;2023-04-03T00:43:30;14.30;58.20
13521;DHT22;6832;51.186;3.236;2023-04-03T00:49:06;14.30;58.20
13521;DHT22;6832;51.186;3.236;2023-04-03T00:51:35;14.30;58.20
13521;DHT22;6832;51.186;3.236;2023-04-03T00:54:05;14.30;58.20
13521;DHT22;6832;51.186;3.236;2023-04-03T00:56:34;14.30;58.20
13521;DHT22;6832;51.186;3.236;2023-04-03T00:59:06;14.20;58.70
13521;DHT22;6832;51.186;3.236;2023-04-03T01:01:35;14.20;58.10
13521;DHT22;6832;51.186;3.236;2023-04-03T01:04:04;14.20;58.20
13521;DHT22;6832;51.186;3.236;2023-04-03T01:06:35;14.20;58.10
13521;DHT22;6832;51.186;3.236;2023-04-03T01:09:04;14.20;58.10
13521;DHT22;6832;51.186;3.236;2023-04-03T01:11:33;14.20;58.10
13521;DHT22;6832;51.186;3.236;2023-04-03T01:14:03;14.20;58.20
13521;DHT22;6832;51.186;3.236;2023-04-03T01:16:31;14.20;58.10
13521;DHT22;6832;51.186;3.236;2023-04-03T01:18:59;14.20;58.20
13521;DHT22;6832;51.186;3.236;2023-04-03T01:21:51;14.20;58.10
13521;DHT22;6832;51.186;3.236;2023-04-03T01:24:36;14.20;58.10
13521;DHT22;6832;51.186;3.236;2023-04-03T01:27:09;14.10;58.00
13521;DHT22;6832;51.186;3.236;2023-04-03T01:29:37;14.10;58.00
13521;DHT22;6832;51.186;3.236;2023-04-03T01:32:06;14.10;58.10
13521;DHT22;6832;51.186;3.236;2023-04-03T01:34:33;14.10;58.10
13521;DHT22;6832;51.186;3.236;2023-04-03T01:37:00;14.10;58.00
13521;DHT22;6832;51.186;3.236;2023-04-03T01:39:27;14.10;58.00
13521;DHT22;6832;51.186;3.236;2023-04-03T01:41:54;14.10;58.00
13521;DHT22;6832;51.186;3.236;2023-04-03T01:44:21;14.10;58.00
13521;DHT22;6832;51.186;3.236;2023-04-03T01:46:48;14.00;57.90
13521;DHT22;6832;51.186;3.236;2023-04-03T01:49:16;14.00;58.00
13521;DHT22;6832;51.186;3.236;2023-04-03T01:51:43;14.10;58.00
13521;DHT22;6832;51.186;3.236;2023-04-03T01:54:10;14.00;57.90
13521;DHT22;6832;51.186;3.236;2023-04-03T01:56:37;14.00;57.90
13521;DHT22;6832;51.186;3.236;2023-04-03T01:59:04;14.00;57.90
13521;DHT22;6832;51.186;3.236;2023-04-03T02:01:32;14.00;57.90
13521;DHT22;6832;51.186;3.236;2023-04-03T02:03:59;14.00;57.90
13521;DHT22;6832;51.186;3.236;2023-04-03T02:06:27;14.00;57.90
13521;DHT22;6832;51.186;3.236;2023-04-03T02:08:54;14.00;57.90
13521;DHT22;6832;51.186;3.236;2023-04-03T02:11:21;13.90;57.90
13521;DHT22;6832;51.186;3.236;2023-04-03T02:13:48;13.90;57.90
13521;DHT22;6832;51.186;3.236;2023-04-03T02:16:15;13.90;57.90
13521;DHT22;6832;51.186;3.236;2023-04-03T02:18:42;13.90;57.90
13521;DHT22;6832;51.186;3.236;2023-04-03T02:21:09;13.90;57.90
13521;DHT22;6832;51.186;3.236;2023-04-03T02:23:37;13.90;57.80
13521;DHT22;6832;51.186;3.236;2023-04-03T02:26:06;13.90;57.80
13521;DHT22;6832;51.186;3.236;2023-04-03T02:28:34;13.90;57.80
13521;DHT22;6832;51.186;3.236;2023-04-03T02:31:01;13.90;57.80
13521;DHT22;6832;51.186;3.236;2023-04-03T02:33:28;13.90;57.80
13521;DHT22;6832;51.186;3.236;2023-04-03T02:35:55;13.80;57.80
13521;DHT22;6832;51.186;3.236;2023-04-03T02:38:22;13.80;57.70
13521;DHT22;6832;51.186;3.236;2023-04-03T02:40:51;13.80;57.70
13521;DHT22;6832;51.186;3.236;2023-04-03T02:43:21;13.80;57.70
13521;DHT22;6832;51.186;3.236;2023-04-03T02:45:48;13.80;57.80
13521;DHT22;6832;51.186;3.236;2023-04-03T02:48:15;13.70;57.60
13521;DHT22;6832;51.186;3.236;2023-04-03T02:50:42;13.80;57.70
13521;DHT22;6832;51.186;3.236;2023-04-03T02:53:09;13.80;58.40
13521;DHT22;6832;51.186;3.236;2023-04-03T02:55:36;13.80;57.80
13521;DHT22;6832;51.186;3.236;2023-04-03T02:58:05;13.80;57.70
13521;DHT22;6832;51.186;3.236;2023-04-03T03:00:32;13.70;57.60
13521;DHT22;6832;51.186;3.236;2023-04-03T03:02:59;13.70;57.70
13521;DHT22;6832;51.186;3.236;2023-04-03T03:05:27;13.70;57.70
13521;DHT22;6832;51.186;3.236;2023-04-03T03:07:54;13.70;57.70
13521;DHT22;6832;51.186;3.236;2023-04-03T03:10:22;13.70;57.60
13521;DHT22;6832;51.186;3.236;2023-04-03T03:12:49;13.70;57.70
13521;DHT22;6832;51.186;3.236;2023-04-03T03:15:18;13.70;57.60
13521;DHT22;6832;51.186;3.236;2023-04-03T03:17:45;13.70;57.60
13521;DHT22;6832;51.186;3.236;2023-04-03T03:20:12;13.70;57.60
13521;DHT22;6832;51.186;3.236;2023-04-03T03:22:41;13.70;57.70
13521;DHT22;6832;51.186;3.236;2023-04-03T03:25:09;13.60;57.60
13521;DHT22;6832;51.186;3.236;2023-04-03T03:27:36;13.60;58.20
13521;DHT22;6832;51.186;3.236;2023-04-03T03:30:06;13.60;57.60
13521;DHT22;6832;51.186;3.236;2023-04-03T03:32:34;13.60;57.50
13521;DHT22;6832;51.186;3.236;2023-04-03T03:35:03;13.60;57.50
13521;DHT22;6832;51.186;3.236;2023-04-03T03:37:30;13.60;57.60
13521;DHT22;6832;51.186;3.236;2023-04-03T03:39:57;13.60;57.50
13521;DHT22;6832;51.186;3.236;2023-04-03T03:42:24;13.60;57.50
13521;DHT22;6832;51.186;3.236;2023-04-03T03:44:52;13.60;57.60
13521;DHT22;6832;51.186;3.236;2023-04-03T03:47:20;13.60;57.60
13521;DHT22;6832;51.186;3.236;2023-04-03T03:49:48;13.60;57.60
13521;DHT22;6832;51.186;3.236;2023-04-03T03:52:17;13.50;57.50
13521;DHT22;6832;51.186;3.236;2023-04-03T03:54:44;13.60;57.60
13521;DHT22;6832;51.186;3.236;2023-04-03T03:57:11;13.50;57.50
13521;DHT22;6832;51.186;3.236;2023-04-03T03:59:38;13.60;57.70
13521;DHT22;6832;51.186;3.236;2023-04-03T04:02:07;13.60;57.60
13521;DHT22;6832;51.186;3.236;2023-04-03T04:04:34;13.50;57.50
13521;DHT22;6832;51.186;3.236;2023-04-03T04:07:05;13.50;57.50
13521;DHT22;6832;51.186;3.236;2023-04-03T04:09:33;13.50;57.50
13521;DHT22;6832;51.186;3.236;2023-04-03T04:12:00;13.50;57.50
13521;DHT22;6832;51.186;3.236;2023-04-03T04:14:27;13.50;57.50
13521;DHT22;6832;51.186;3.236;2023-04-03T04:16:54;13.50;57.50
13521;DHT22;6832;51.186;3.236;2023-04-03T04:19:21;13.50;57.50
13521;DHT22;6832;51.186;3.236;2023-04-03T04:21:53;13.50;57.50
13521;DHT22;6832;51.186;3.236;2023-04-03T04:24:22;13.50;57.50
13521;DHT22;6832;51.186;3.236;2023-04-03T04:26:49;13.50;57.50
13521;DHT22;6832;51.186;3.236;2023-04-03T04:29:17;13.50;57.50
13521;DHT22;6832;51.186;3.236;2023-04-03T04:31:45;13.50;57.50
13521;DHT22;6832;51.186;3.236;2023-04-03T04:34:12;13.50;57.40
13521;DHT22;6832;51.186;3.236;2023-04-03T04:36:39;13.50;57.50
13521;DHT22;6832;51.186;3.236;2023-04-03T04:39:06;13.50;57.40
13521;DHT22;6832;51.186;3.236;2023-04-03T04:41:35;13.50;57.50
13521;DHT22;6832;51.186;3.236;2023-04-03T04:44:02;13.50;57.40
13521;DHT22;6832;51.186;3.236;2023-04-03T04:46:29;13.40;57.40
13521;DHT22;6832;51.186;3.236;2023-04-03T04:48:56;13.50;57.40
13521;DHT22;6832;51.186;3.236;2023-04-03T04:51:23;13.40;57.40
13521;DHT22;6832;51.186;3.236;2023-04-03T04:53:50;13.40;57.40
13521;DHT22;6832;51.186;3.236;2023-04-03T04:56:17;13.40;57.40
13521;DHT22;6832;51.186;3.236;2023-04-03T04:58:45;13.40;57.30
13521;DHT22;6832;51.186;3.236;2023-04-03T05:01:12;13.40;57.30
13521;DHT22;6832;51.186;3.236;2023-04-03T05:03:39;13.40;57.30
13521;DHT22;6832;51.186;3.236;2023-04-03T05:06:06;13.40;57.30
13521;DHT22;6832;51.186;3.236;2023-04-03T05:08:33;13.30;57.30
13521;DHT22;6832;51.186;3.236;2023-04-03T05:11:26;13.40;57.30
13521;DHT22;6832;51.186;3.236;2023-04-03T05:13:54;13.40;57.30
13521;DHT22;6832;51.186;3.236;2023-04-03T05:16:21;13.40;57.30
13521;DHT22;6832;51.186;3.236;2023-04-03T05:18:48;13.40;57.30
13521;DHT22;6832;51.186;3.236;2023-04-03T05:21:15;13.40;57.30
13521;DHT22;6832;51.186;3.236;2023-04-03T05:23:44;13.30;57.30
13521;DHT22;6832;51.186;3.236;2023-04-03T05:26:12;13.40;57.90
13521;DHT22;6832;51.186;3.236;2023-04-03T05:28:38;13.30;57.20
13521;DHT22;6832;51.186;3.236;2023-04-03T05:31:07;13.30;57.20
13521;DHT22;6832;51.186;3.236;2023-04-03T05:33:34;13.30;57.20
13521;DHT22;6832;51.186;3.236;2023-04-03T05:36:03;13.30;57.20
13521;DHT22;6832;51.186;3.236;2023-04-03T05:38:30;13.30;57.30
13521;DHT22;6832;51.186;3.236;2023-04-03T05:40:57;13.30;57.20
13521;DHT22;6832;51.186;3.236;2023-04-03T05:43:24;13.30;57.20
13521;DHT22;6832;51.186;3.236;2023-04-03T05:45:52;13.30;57.20
13521;DHT22;6832;51.186;3.236;2023-04-03T05:48:20;13.30;57.20
13521;DHT22;6832;51.186;3.236;2023-04-03T05:50:47;13.30;57.10
13521;DHT22;6832;51.186;3.236;2023-04-03T05:53:20;13.30;57.20
13521;DHT22;6832;51.186;3.236;2023-04-03T05:56:01;13.30;57.10
13521;DHT22;6832;51.186;3.236;2023-04-03T05:58:29;13.30;57.20
13521;DHT22;6832;51.186;3.236;2023-04-03T06:00:57;13.30;57.20
13521;DHT22;6832;51.186;3.236;2023-04-03T06:03:26;13.30;57.20
13521;DHT22;6832;51.186;3.236;2023-04-03T06:05:53;13.30;57.10
13521;DHT22;6832;51.186;3.236;2023-04-03T06:08:20;13.30;57.20
13521;DHT22;6832;51.186;3.236;2023-04-03T06:10:49;13.30;57.20
13521;DHT22;6832;51.186;3.236;2023-04-03T06:13:17;13.30;57.20
13521;DHT22;6832;51.186;3.236;2023-04-03T06:15:44;13.30;57.10
13521;DHT22;6832;51.186;3.236;2023-04-03T06:18:14;13.30;57.20
13521;DHT22;6832;51.186;3.236;2023-04-03T06:20:42;13.20;57.10
13521;DHT22;6832;51.186;3.236;2023-04-03T06:23:10;13.20;57.10
13521;DHT22;6832;51.186;3.236;2023-04-03T06:25:37;13.20;57.10
13521;DHT22;6832;51.186;3.236;2023-04-03T06:28:05;13.20;57.10
13521;DHT22;6832;51.186;3.236;2023-04-03T06:30:34;13.20;57.10
13521;DHT22;6832;51.186;3.236;2023-04-03T06:33:02;13.30;57.20
13521;DHT22;6832;51.186;3.236;2023-04-03T06:35:29;13.20;57.10
13521;DHT22;6832;51.186;3.236;2023-04-03T06:37:58;13.20;57.10
13521;DHT22;6832;51.186;3.236;2023-04-03T06:40:29;13.30;57.20
13521;DHT22;6832;51.186;3.236;2023-04-03T06:42:56;13.20;57.10
13521;DHT22;6832;51.186;3.236;2023-04-03T06:45:27;13.20;57.10
13521;DHT22;6832;51.186;3.236;2023-04-03T06:47:54;13.20;57.10
13521;DHT22;6832;51.186;3.236;2023-04-03T06:50:21;13.10;57.00
13521;DHT22;6832;51.186;3.236;2023-04-03T06:52:49;13.20;57.10
13521;DHT22;6832;51.186;3.236;2023-04-03T06:55:17;13.20;57.10
13521;DHT22;6832;51.186;3.236;2023-04-03T06:57:45;13.20;57.00
13521;DHT22;6832;51.186;3.236;2023-04-03T07:00:13;13.20;57.10
13521;DHT22;6832;51.186;3.236;2023-04-03T07:02:41;13.20;57.10
13521;DHT22;6832;51.186;3.236;2023-04-03T07:05:09;13.10;57.00
13521;DHT22;6832;51.186;3.236;2023-04-03T07:07:37;13.10;57.00
13521;DHT22;6832;51.186;3.236;2023-04-03T07:10:05;13.10;57.00
13521;DHT22;6832;51.186;3.236;2023-04-03T07:12:34;13.10;57.00
13521;DHT22;6832;51.186;3.236;2023-04-03T07:15:14;13.10;57.00
13521;DHT22;6832;51.186;3.236;2023-04-03T07:17:41;13.10;57.00
13521;DHT22;6832;51.186;3.236;2023-04-03T07:20:09;13.10;57.00
13521;DHT22;6832;51.186;3.236;2023-04-03T07:22:37;13.10;57.10
13521;DHT22;6832;51.186;3.236;2023-04-03T07:25:05;13.10;57.00
13521;DHT22;6832;51.186;3.236;2023-04-03T07:27:34;13.10;57.10
13521;DHT22;6832;51.186;3.236;2023-04-03T07:30:02;13.10;57.00
13521;DHT22;6832;51.186;3.236;2023-04-03T07:32:29;13.10;57.10
13521;DHT22;6832;51.186;3.236;2023-04-03T07:34:56;13.00;57.00
13521;DHT22;6832;51.186;3.236;2023-04-03T07:37:23;13.10;57.10
13521;DHT22;6832;51.186;3.236;2023-04-03T07:39:50;13.10;57.10
13521;DHT22;6832;51.186;3.236;2023-04-03T07:42:20;13.10;57.10
13521;DHT22;6832;51.186;3.236;2023-04-03T07:44:48;13.10;57.10
13521;DHT22;6832;51.186;3.236;2023-04-03T07:47:15;13.10;57.10
13521;DHT22;6832;51.186;3.236;2023-04-03T07:49:43;13.10;57.10
13521;DHT22;6832;51.186;3.236;2023-04-03T07:52:10;13.10;57.10
13521;DHT22;6832;51.186;3.236;2023-04-03T07:54:38;13.20;57.20
13521;DHT22;6832;51.186;3.236;2023-04-03T07:57:05;13.00;57.00
13521;DHT22;6832;51.186;3.236;2023-04-03T07:59:32;13.10;57.70
13521;DHT22;6832;51.186;3.236;2023-04-03T08:02:00;13.10;57.10
13521;DHT22;6832;51.186;3.236;2023-04-03T08:04:27;13.10;57.10
13521;DHT22;6832;51.186;3.236;2023-04-03T08:07:12;13.10;57.00
13521;DHT22;6832;51.186;3.236;2023-04-03T08:09:39;13.00;57.00
13521;DHT22;6832;51.186;3.236;2023-04-03T08:12:06;13.00;57.10
13521;DHT22;6832;51.186;3.236;2023-04-03T08:14:33;13.10;57.70
13521;DHT22;6832;51.186;3.236;2023-04-03T08:17:02;13.10;57.10
13521;DHT22;6832;51.186;3.236;2023-04-03T08:19:30;13.00;57.10
13521;DHT22;6832;51.186;3.236;2023-04-03T08:21:58;13.00;57.10
13521;DHT22;6832;51.186;3.236;2023-04-03T08:24:28;13.00;57.10
13521;DHT22;6832;51.186;3.236;2023-04-03T08:27:00;13.10;57.30
13521;DHT22;6832;51.186;3.236;2023-04-03T08:29:27;13.00;57.10
13521;DHT22;6832;51.186;3.236;2023-04-03T08:31:54;13.00;57.20
13521;DHT22;6832;51.186;3.236;2023-04-03T08:34:22;13.10;57.30
13521;DHT22;6832;51.186;3.236;2023-04-03T08:36:52;13.10;57.20
13521;DHT22;6832;51.186;3.236;2023-04-03T08:39:23;13.00;57.20
13521;DHT22;6832;51.186;3.236;2023-04-03T08:41:50;13.10;57.20
13521;DHT22;6832;51.186;3.236;2023-04-03T08:47:24;13.10;57.20
13521;DHT22;6832;51.186;3.236;2023-04-03T08:49:58;13.10;57.30
13521;DHT22;6832;51.186;3.236;2023-04-03T08:52:33;13.10;57.30
13521;DHT22;6832;51.186;3.236;2023-04-03T08:55:04;13.10;57.30
13521;DHT22;6832;51.186;3.236;2023-04-03T08:57:35;13.10;57.30
13521;DHT22;6832;51.186;3.236;2023-04-03T09:00:25;13.10;57.40
13521;DHT22;6832;51.186;3.236;2023-04-03T09:02:54;13.10;57.30
13521;DHT22;6832;51.186;3.236;2023-04-03T09:05:33;13.10;57.40
13521;DHT22;6832;51.186;3.236;2023-04-03T09:08:09;13.10;57.40
13521;DHT22;6832;51.186;3.236;2023-04-03T09:10:40;13.10;57.40
13521;DHT22;6832;51.186;3.236;2023-04-03T09:13:11;13.10;57.40
13521;DHT22;6832;51.186;3.236;2023-04-03T09:15:44;13.20;57.60
13521;DHT22;6832;51.186;3.236;2023-04-03T09:18:15;13.20;57.50
13521;DHT22;6832;51.186;3.236;2023-04-03T09:20:48;13.20;57.60
13521;DHT22;6832;51.186;3.236;2023-04-03T09:23:22;13.30;57.60
13521;DHT22;6832;51.186;3.236;2023-04-03T09:25:57;13.20;57.60
13521;DHT22;6832;51.186;3.236;2023-04-03T09:28:25;13.20;57.60
13521;DHT22;6832;51.186;3.236;2023-04-03T09:30:52;13.20;57.60
13521;DHT22;6832;51.186;3.236;2023-04-03T09:33:20;13.30;57.60
13521;DHT22;6832;51.186;3.236;2023-04-03T09:39:05;13.30;57.70
13521;DHT22;6832;51.186;3.236;2023-04-03T09:41:33;13.30;57.60
13521;DHT22;6832;51.186;3.236;2023-04-03T09:44:00;13.30;57.70
13521;DHT22;6832;51.186;3.236;2023-04-03T09:46:32;13.30;58.30
13521;DHT22;6832;51.186;3.236;2023-04-03T09:49:01;13.30;57.80
13521;DHT22;6832;51.186;3.236;2023-04-03T09:51:28;13.20;57.70
13521;DHT22;6832;51.186;3.236;2023-04-03T09:53:57;13.40;57.80
13521;DHT22;6832;51.186;3.236;2023-04-03T09:56:27;13.40;57.80
13521;DHT22;6832;51.186;3.236;2023-04-03T09:59:12;13.40;57.90
13521;DHT22;6832;51.186;3.236;2023-04-03T10:01:43;13.40;58.50
13521;DHT22;6832;51.186;3.236;2023-04-03T10:04:13;13.50;58.00
13521;DHT22;6832;51.186;3.236;2023-04-03T10:06:43;13.50;58.00
13521;DHT22;6832;51.186;3.236;2023-04-03T10:09:19;13.50;58.00
13521;DHT22;6832;51.186;3.236;2023-04-03T10:12:02;13.60;58.20
13521;DHT22;6832;51.186;3.236;2023-04-03T10:14:31;13.60;58.20
13521;DHT22;6832;51.186;3.236;2023-04-03T10:17:05;13.60;58.20
13521;DHT22;6832;51.186;3.236;2023-04-03T10:19:40;13.60;58.20
13521;DHT22;6832;51.186;3.236;2023-04-03T10:22:24;13.70;58.20
13521;DHT22;6832;51.186;3.236;2023-04-03T10:25:02;13.70;58.30
13521;DHT22;6832;51.186;3.236;2023-04-03T10:27:43;13.80;58.30
13521;DHT22;6832;51.186;3.236;2023-04-03T10:30:36;13.80;58.90
13521;DHT22;6832;51.186;3.236;2023-04-03T10:33:27;13.80;58.20
13521;DHT22;6832;51.186;3.236;2023-04-03T10:39:35;13.90;58.30
13521;DHT22;6832;51.186;3.236;2023-04-03T10:42:31;13.90;58.30
13521;DHT22;6832;51.186;3.236;2023-04-03T10:45:15;14.00;58.30
13521;DHT22;6832;51.186;3.236;2023-04-03T10:47:51;14.00;58.30
13521;DHT22;6832;51.186;3.236;2023-04-03T10:50:35;14.00;58.30
13521;DHT22;6832;51.186;3.236;2023-04-03T10:53:10;14.00;58.20
13521;DHT22;6832;51.186;3.236;2023-04-03T10:55:42;14.10;58.30
13521;DHT22;6832;51.186;3.236;2023-04-03T10:58:26;14.10;58.40
13521;DHT22;6832;51.186;3.236;2023-04-03T11:01:00;14.00;58.20
13521;DHT22;6832;51.186;3.236;2023-04-03T11:03:32;14.10;58.30
13521;DHT22;6832;51.186;3.236;2023-04-03T11:06:02;14.10;58.30
13521;DHT22;6832;51.186;3.236;2023-04-03T11:08:36;14.20;58.40
13521;DHT22;6832;51.186;3.236;2023-04-03T11:11:08;14.20;58.30
13521;DHT22;6832;51.186;3.236;2023-04-03T11:13:40;14.20;58.30
13521;DHT22;6832;51.186;3.236;2023-04-03T11:16:13;14.20;58.30
13521;DHT22;6832;51.186;3.236;2023-04-03T11:18:45;14.30;58.40
13521;DHT22;6832;51.186;3.236;2023-04-03T11:21:17;14.30;58.40
13521;DHT22;6832;51.186;3.236;2023-04-03T11:23:47;14.30;58.30
13521;DHT22;6832;51.186;3.236;2023-04-03T11:26:19;14.30;58.30
13521;DHT22;6832;51.186;3.236;2023-04-03T11:28:52;14.40;58.40
13521;DHT22;6832;51.186;3.236;2023-04-03T11:31:43;14.40;58.40
13521;DHT22;6832;51.186;3.236;2023-04-03T11:34:24;14.40;58.40
13521;DHT22;6832;51.186;3.236;2023-04-03T11:36:57;14.40;58.40
13521;DHT22;6832;51.186;3.236;2023-04-03T11:39:29;14.40;58.40
13521;DHT22;6832;51.186;3.236;2023-04-03T11:42:15;14.40;58.40
13521;DHT22;6832;51.186;3.236;2023-04-03T11:44:47;14.50;58.40
13521;DHT22;6832;51.186;3.236;2023-04-03T11:47:48;14.40;58.30
13521;DHT22;6832;51.186;3.236;2023-04-03T11:50:31;14.60;58.50
13521;DHT22;6832;51.186;3.236;2023-04-03T11:53:02;14.50;58.40
13521;DHT22;6832;51.186;3.236;2023-04-03T11:55:58;14.50;58.40
13521;DHT22;6832;51.186;3.236;2023-04-03T11:58:26;14.60;58.50
13521;DHT22;6832;51.186;3.236;2023-04-03T12:01:07;14.60;58.50
13521;DHT22;6832;51.186;3.236;2023-04-03T12:04:03;14.60;58.50
13521;DHT22;6832;51.186;3.236;2023-04-03T12:12:35;14.60;58.40
13521;DHT22;6832;51.186;3.236;2023-04-03T12:15:18;14.70;58.50
13521;DHT22;6832;51.186;3.236;2023-04-03T12:17:46;14.70;58.50
13521;DHT22;6832;51.186;3.236;2023-04-03T12:23:32;14.70;58.50
13521;DHT22;6832;51.186;3.236;2023-04-03T12:26:19;14.80;58.60
13521;DHT22;6832;51.186;3.236;2023-04-03T12:28:51;14.80;58.60
13521;DHT22;6832;51.186;3.236;2023-04-03T12:31:19;14.80;58.60
13521;DHT22;6832;51.186;3.236;2023-04-03T12:34:10;14.80;58.60
13521;DHT22;6832;51.186;3.236;2023-04-03T12:36:45;14.90;58.70
13521;DHT22;6832;51.186;3.236;2023-04-03T12:39:48;14.90;58.70
13521;DHT22;6832;51.186;3.236;2023-04-03T12:42:35;14.90;58.70
13521;DHT22;6832;51.186;3.236;2023-04-03T12:45:14;14.90;58.70
13521;DHT22;6832;51.186;3.236;2023-04-03T12:47:43;15.00;58.70
13521;DHT22;6832;51.186;3.236;2023-04-03T12:50:20;15.00;58.70
13521;DHT22;6832;51.186;3.236;2023-04-03T12:52:54;15.00;58.80
13521;DHT22;6832;51.186;3.236;2023-04-03T12:55:24;15.00;58.70
13521;DHT22;6832;51.186;3.236;2023-04-03T12:57:52;15.10;58.80
13521;DHT22;6832;51.186;3.236;2023-04-03T13:00:28;15.10;58.80
13521;DHT22;6832;51.186;3.236;2023-04-03T13:02:55;15.10;58.80
13521;DHT22;6832;51.186;3.236;2023-04-03T13:05:23;15.10;58.70
13521;DHT22;6832;51.186;3.236;2023-04-03T13:07:54;15.20;58.80
13521;DHT22;6832;51.186;3.236;2023-04-03T13:10:25;15.20;58.80
13521;DHT22;6832;51.186;3.236;2023-04-03T13:12:54;15.20;58.80
13521;DHT22;6832;51.186;3.236;2023-04-03T13:15:26;15.20;58.80
13521;DHT22;6832;51.186;3.236;2023-04-03T13:17:54;15.20;59.30
13521;DHT22;6832;51.186;3.236;2023-04-03T13:20:24;15.30;58.80
13521;DHT22;6832;51.186;3.236;2023-04-03T13:22:56;15.30;58.80
13521;DHT22;6832;51.186;3.236;2023-04-03T13:25:28;15.50;59.00
13521;DHT22;6832;51.186;3.236;2023-04-03T13:27:58;15.30;58.80
13521;DHT22;6832;51.186;3.236;2023-04-03T13:30:30;15.40;58.90
13521;DHT22;6832;51.186;3.236;2023-04-03T13:33:00;15.40;58.90
13521;DHT22;6832;51.186;3.236;2023-04-03T13:35:39;15.40;58.90
13521;DHT22;6832;51.186;3.236;2023-04-03T13:38:22;15.40;58.90
13521;DHT22;6832;51.186;3.236;2023-04-03T13:40:55;15.40;58.80
13521;DHT22;6832;51.186;3.236;2023-04-03T13:43:24;15.50;58.80
13521;DHT22;6832;51.186;3.236;2023-04-03T13:45:57;15.50;58.80
13521;DHT22;6832;51.186;3.236;2023-04-03T13:48:24;15.50;58.80
13521;DHT22;6832;51.186;3.236;2023-04-03T13:51:01;15.50;58.80
13521;DHT22;6832;51.186;3.236;2023-04-03T13:53:33;15.60;58.80
13521;DHT22;6832;51.186;3.236;2023-04-03T13:56:09;15.60;58.80
13521;DHT22;6832;51.186;3.236;2023-04-03T13:58:37;15.60;58.80
13521;DHT22;6832;51.186;3.236;2023-04-03T14:01:11;15.60;58.80
13521;DHT22;6832;51.186;3.236;2023-04-03T14:03:45;15.60;58.70
13521;DHT22;6832;51.186;3.236;2023-04-03T14:06:15;15.70;58.80
13521;DHT22;6832;51.186;3.236;2023-04-03T14:08:46;15.70;58.80
13521;DHT22;6832;51.186;3.236;2023-04-03T14:11:20;15.70;58.80
13521;DHT22;6832;51.186;3.236;2023-04-03T14:13:48;15.70;58.70
13521;DHT22;6832;51.186;3.236;2023-04-03T14:16:18;15.70;58.70
13521;DHT22;6832;51.186;3.236;2023-04-03T14:18:49;15.70;58.70
13521;DHT22;6832;51.186;3.236;2023-04-03T14:21:18;15.70;58.70
13521;DHT22;6832;51.186;3.236;2023-04-03T14:23:45;15.80;58.80
13521;DHT22;6832;51.186;3.236;2023-04-03T14:26:13;15.80;58.80
13521;DHT22;6832;51.186;3.236;2023-04-03T14:28:45;15.90;58.80
13521;DHT22;6832;51.186;3.236;2023-04-03T14:31:13;15.80;58.80
13521;DHT22;6832;51.186;3.236;2023-04-03T14:33:41;15.80;58.80
13521;DHT22;6832;51.186;3.236;2023-04-03T14:36:13;15.80;58.80
13521;DHT22;6832;51.186;3.236;2023-04-03T14:38:41;15.80;58.80
13521;DHT22;6832;51.186;3.236;2023-04-03T14:41:09;15.90;58.80
13521;DHT22;6832;51.186;3.236;2023-04-03T14:43:37;15.90;58.80
13521;DHT22;6832;51.186;3.236;2023-04-03T14:46:12;15.90;58.80
13521;DHT22;6832;51.186;3.236;2023-04-03T14:48:39;15.90;58.80
13521;DHT22;6832;51.186;3.236;2023-04-03T14:51:06;15.90;58.80
13521;DHT22;6832;51.186;3.236;2023-04-03T14:53:32;15.90;58.80
13521;DHT22;6832;51.186;3.236;2023-04-03T14:55:59;16.00;58.90
13521;DHT22;6832;51.186;3.236;2023-04-03T14:58:27;16.00;58.80
13521;DHT22;6832;51.186;3.236;2023-04-03T15:00:57;16.00;58.80
13521;DHT22;6832;51.186;3.236;2023-04-03T15:03:26;16.00;58.80
13521;DHT22;6832;51.186;3.236;2023-04-03T15:05:53;16.00;58.80
13521;DHT22;6832;51.186;3.236;2023-04-03T15:08:21;16.00;58.70
13521;DHT22;6832;51.186;3.236;2023-04-03T15:10:52;16.00;58.80
13521;DHT22;6832;51.186;3.236;2023-04-03T15:13:21;16.00;58.70
13521;DHT22;6832;51.186;3.236;2023-04-03T15:15:49;16.10;58.80
13521;DHT22;6832;51.186;3.236;2023-04-03T15:18:18;16.00;58.60
13521;DHT22;6832;51.186;3.236;2023-04-03T15:20:48;16.10;58.70
13521;DHT22;6832;51.186;3.236;2023-04-03T15:23:15;16.10;58.70
13521;DHT22;6832;51.186;3.236;2023-04-03T15:25:43;16.10;58.70
13521;DHT22;6832;51.186;3.236;2023-04-03T15:28:18;16.10;58.70
13521;DHT22;6832;51.186;3.236;2023-04-03T15:30:45;16.10;58.60
13521;DHT22;6832;51.186;3.236;2023-04-03T15:33:16;16.10;58.60
13521;DHT22;6832;51.186;3.236;2023-04-03T15:35:43;16.10;59.20
13521;DHT22;6832;51.186;3.236;2023-04-03T15:38:12;16.10;58.60
13521;DHT22;6832;51.186;3.236;2023-04-03T15:40:39;16.10;58.60
13521;DHT22;6832;51.186;3.236;2023-04-03T15:43:06;16.10;58.60
13521;DHT22;6832;51.186;3.236;2023-04-03T15:45:34;16.10;58.60
13521;DHT22;6832;51.186;3.236;2023-04-03T15:48:04;16.20;58.60
13521;DHT22;6832;51.186;3.236;2023-04-03T15:50:31;16.20;58.60
13521;DHT22;6832;51.186;3.236;2023-04-03T15:52:58;16.10;58.50
13521;DHT22;6832;51.186;3.236;2023-04-03T15:55:30;16.10;58.40
13521;DHT22;6832;51.186;3.236;2023-04-03T15:57:57;16.20;58.50
13521;DHT22;6832;51.186;3.236;2023-04-03T16:00:25;16.20;58.40
13521;DHT22;6832;51.186;3.236;2023-04-03T16:02:55;16.20;58.40
13521;DHT22;6832;51.186;3.236;2023-04-03T16:05:24;16.20;58.40
13521;DHT22;6832;51.186;3.236;2023-04-03T16:07:51;16.20;58.40
13521;DHT22;6832;51.186;3.236;2023-04-03T16:10:19;16.30;58.40
13521;DHT22;6832;51.186;3.236;2023-04-03T16:12:49;16.30;58.40
13521;DHT22;6832;51.186;3.236;2023-04-03T16:15:16;16.30;58.30
13521;DHT22;6832;51.186;3.236;2023-04-03T16:17:43;16.30;58.40
13521;DHT22;6832;51.186;3.236;2023-04-03T16:20:11;16.30;58.30
13521;DHT22;6832;51.186;3.236;2023-04-03T16:22:41;16.30;58.30
13521;DHT22;6832;51.186;3.236;2023-04-03T16:25:08;16.30;58.20
13521;DHT22;6832;51.186;3.236;2023-04-03T16:27:36;16.30;58.20